Observation data for Northwest Lubbock on 07/10/2018      Previous  Date  Next       Current Mesonet Observations  Soil Data  Daily Summary Page  Observations in Plain Language
KLBW 100500Z 19005KT 24/15 A3025 RMK A01 T02390153  RH  061%=      5-min Rain = 0
KLBW 100505Z 19004KT 24/15 A3025 RMK A01 T02370153  RH  062%=      5-min Rain = 0
KLBW 100510Z 19004KT 24/15 A3025 RMK A01 T02360153  RH  063%=      5-min Rain = 0
KLBW 100515Z 20004KT 24/15 A3025 RMK A01 T02350153  RH  063%=      5-min Rain = 0
KLBW 100520Z 19003KT 23/15 A3025 RMK A01 T02340153  RH  063%=      5-min Rain = 0
KLBW 100525Z 20003KT 23/15 A3025 RMK A01 T02310153  RH  064%=      5-min Rain = 0
KLBW 100530Z 20003KT 23/15 A3025 RMK A01 T02290153  RH  065%=      5-min Rain = 0
KLBW 100535Z 20002KT 23/15 A3025 RMK A01 T02260154  RH  066%=      5-min Rain = 0
KLBW 100540Z 20002KT 22/15 A3025 RMK A01 T02240154  RH  067%=      5-min Rain = 0
KLBW 100545Z 20002KT 22/15 A3025 RMK A01 T02220150  RH  067%=      5-min Rain = 0
KLBW 100550Z 21002KT 22/15 A3025 RMK A01 T02190150  RH  068%=      5-min Rain = 0
KLBW 100555Z 21002KT 22/15 A3024 RMK A01 T02170152  RH  070%=      5-min Rain = 0
KLBW 100600Z 20002KT 21/15 A3024 RMK A01 T02140152  RH  071%=      5-min Rain = 0
KLBW 100605Z 19001KT 21/15 A3024 RMK A01 T02130154  RH  072%=      5-min Rain = 0
KLBW 100610Z 18001KT 21/15 A3024 RMK A01 T02110150  RH  071%=      5-min Rain = 0
KLBW 100615Z 19001KT 21/15 A3025 RMK A01 T02090150  RH  072%=      5-min Rain = 0
KLBW 100620Z 20001KT 21/15 A3025 RMK A01 T02060149  RH  073%=      5-min Rain = 0
KLBW 100625Z 21001KT 20/15 A3025 RMK A01 T02040148  RH  073%=      5-min Rain = 0
KLBW 100630Z 21000KT 20/15 A3024 RMK A01 T02040152  RH  076%=      5-min Rain = 0
KLBW 100635Z 21001KT 20/15 A3024 RMK A01 T02020148  RH  075%=      5-min Rain = 0
KLBW 100640Z 21001KT 20/15 A3024 RMK A01 T02010149  RH  075%=      5-min Rain = 0
KLBW 100645Z 21002KT 20/16 A3025 RMK A01 T02030158  RH  079%=      5-min Rain = 0
KLBW 100650Z 22002KT 20/16 A3025 RMK A01 T02030162  RH  081%=      5-min Rain = 0
KLBW 100655Z 22002KT 20/16 A3025 RMK A01 T02010161  RH  081%=      5-min Rain = 0
KLBW 100700Z 22002KT 20/16 A3025 RMK A01 T01970156  RH  080%=      5-min Rain = 0
KLBW 100705Z 22001KT 20/15 A3025 RMK A01 T01960154  RH  080%=      5-min Rain = 0
KLBW 100710Z 22001KT 20/16 A3025 RMK A01 T01990159  RH  082%=      5-min Rain = 0
KLBW 100715Z 21002KT 20/16 A3025 RMK A01 T02000162  RH  083%=      5-min Rain = 0
KLBW 100720Z 22001KT 20/16 A3025 RMK A01 T01980160  RH  082%=      5-min Rain = 0
KLBW 100725Z 30002KT 20/16 A3025 RMK A01 T02020164  RH  083%=      5-min Rain = 0
KLBW 100730Z 29002KT 21/16 A3025 RMK A01 T02060164  RH  081%=      5-min Rain = 0
KLBW 100735Z 28002KT 21/16 A3025 RMK A01 T02060162  RH  080%=      5-min Rain = 0
KLBW 100740Z 27001KT 21/16 A3025 RMK A01 T02060164  RH  081%=      5-min Rain = 0
KLBW 100745Z 23002KT 21/17 A3025 RMK A01 T02050165  RH  081%=      5-min Rain = 0
KLBW 100750Z 23002KT 20/16 A3025 RMK A01 T02030163  RH  082%=      5-min Rain = 0
KLBW 100755Z 25002KT 20/16 A3025 RMK A01 T02010164  RH  083%=      5-min Rain = 0
KLBW 100800Z 25002KT 20/16 A3025 RMK A01 T01970159  RH  082%=      5-min Rain = 0
KLBW 100805Z 25002KT 20/16 A3025 RMK A01 T01950158  RH  083%=      5-min Rain = 0
KLBW 100810Z 25001KT 20/16 A3025 RMK A01 T01950160  RH  084%=      5-min Rain = 0
KLBW 100815Z 25001KT 19/16 A3025 RMK A01 T01920155  RH  083%=      5-min Rain = 0
KLBW 100820Z 25000KT 19/15 A3025 RMK A01 T01910150  RH  081%=      5-min Rain = 0
KLBW 100825Z 33001KT 19/15 A3025 RMK A01 T01930152  RH  081%=      5-min Rain = 0
KLBW 100830Z 00002KT 19/15 A3025 RMK A01 T01930153  RH  081%=      5-min Rain = 0
KLBW 100835Z 36001KT 19/15 A3025 RMK A01 T01930154  RH  082%=      5-min Rain = 0
KLBW 100840Z 35000KT 19/16 A3025 RMK A01 T01920155  RH  083%=      5-min Rain = 0
KLBW 100845Z 35001KT 19/16 A3025 RMK A01 T01910157  RH  084%=      5-min Rain = 0
KLBW 100850Z 35001KT 19/16 A3025 RMK A01 T01910157  RH  085%=      5-min Rain = 0
KLBW 100855Z 35002KT 19/16 A3025 RMK A01 T01900157  RH  085%=      5-min Rain = 0
KLBW 100900Z 34003KT 19/16 A3025 RMK A01 T01900158  RH  085%=      5-min Rain = 0
KLBW 100905Z 33002KT 19/16 A3025 RMK A01 T01940161  RH  085%=      5-min Rain = 0
KLBW 100910Z 33001KT 20/16 A3026 RMK A01 T01950161  RH  084%=      5-min Rain = 0
KLBW 100915Z 33000KT 19/16 A3025 RMK A01 T01920156  RH  084%=      5-min Rain = 0
KLBW 100920Z 34001KT 19/15 A3025 RMK A01 T01880154  RH  084%=      5-min Rain = 0
KLBW 100925Z 34001KT 19/16 A3025 RMK A01 T01880156  RH  086%=      5-min Rain = 0
KLBW 100930Z 00000KT 19/16 A3025 RMK A01 T01900160  RH  087%=      5-min Rain = 0
KLBW 100935Z 02000KT 19/16 A3025 RMK A01 T01900163  RH  088%=      5-min Rain = 0
KLBW 100940Z 02001KT 19/16 A3025 RMK A01 T01890164  RH  090%=      5-min Rain = 0
KLBW 100945Z 02001KT 19/16 A3025 RMK A01 T01870163  RH  090%=      5-min Rain = 0
KLBW 100950Z 02001KT 19/17 A3025 RMK A01 T01870165  RH  091%=      5-min Rain = 0
KLBW 100955Z 01001KT 19/16 A3025 RMK A01 T01860164  RH  092%=      5-min Rain = 0
KLBW 101000Z 01001KT 19/16 A3025 RMK A01 T01850164  RH  092%=      5-min Rain = 0
KLBW 101005Z 01001KT 19/16 A3025 RMK A01 T01850164  RH  092%=      5-min Rain = 0
KLBW 101010Z 35002KT 19/16 A3025 RMK A01 T01860163  RH  091%=      5-min Rain = 0
KLBW 101015Z 35002KT 19/16 A3025 RMK A01 T01870163  RH  090%=      5-min Rain = 0
KLBW 101020Z 34002KT 19/16 A3025 RMK A01 T01890163  RH  089%=      5-min Rain = 0
KLBW 101025Z 34002KT 19/16 A3025 RMK A01 T01900162  RH  088%=      5-min Rain = 0
KLBW 101030Z 34002KT 19/16 A3025 RMK A01 T01890160  RH  087%=      5-min Rain = 0
KLBW 101035Z 34002KT 19/16 A3025 RMK A01 T01890160  RH  087%=      5-min Rain = 0
KLBW 101040Z 33003KT 19/16 A3025 RMK A01 T01880158  RH  087%=      5-min Rain = 0
KLBW 101045Z 33003KT 19/16 A3025 RMK A01 T01860158  RH  087%=      5-min Rain = 0
KLBW 101050Z 33002KT 19/16 A3025 RMK A01 T01860158  RH  088%=      5-min Rain = 0
KLBW 101055Z 33002KT 19/16 A3025 RMK A01 T01850157  RH  088%=      5-min Rain = 0
KLBW 101100Z 33002KT 18/16 A3025 RMK A01 T01840157  RH  088%=      5-min Rain = 0
KLBW 101105Z 33002KT 18/16 A3025 RMK A01 T01830158  RH  089%=      5-min Rain = 0
KLBW 101110Z 33002KT 19/16 A3025 RMK A01 T01850160  RH  089%=      5-min Rain = 0
KLBW 101115Z 33001KT 19/16 A3025 RMK A01 T01850159  RH  089%=      5-min Rain = 0
KLBW 101120Z 33001KT 18/16 A3025 RMK A01 T01830157  RH  089%=      5-min Rain = 0
KLBW 101125Z 33001KT 18/16 A3026 RMK A01 T01800155  RH  089%=      5-min Rain = 0
KLBW 101130Z 33000KT 18/16 A3025 RMK A01 T01790155  RH  090%=      5-min Rain = 0
KLBW 101135Z 00000KT 18/15 A3026 RMK A01 T01770154  RH  090%=      5-min Rain = 0
KLBW 101140Z 00000KT 18/15 A3026 RMK A01 T01750153  RH  091%=      5-min Rain = 0
KLBW 101145Z 33001KT 17/15 A3026 RMK A01 T01740154  RH  092%=      5-min Rain = 0
KLBW 101150Z 33001KT 17/15 A3026 RMK A01 T01720152  RH  092%=      5-min Rain = 0
KLBW 101155Z 33001KT 17/15 A3026 RMK A01 T01720153  RH  093%=      5-min Rain = 0
KLBW 101200Z 33000KT 17/16 A3026 RMK A01 T01730156  RH  094%=      5-min Rain = 0
KLBW 101205Z 00000KT 17/16 A3026 RMK A01 T01730156  RH  094%=      5-min Rain = 0
KLBW 101210Z 33000KT 18/16 A3026 RMK A01 T01750159  RH  094%=      5-min Rain = 0
KLBW 101215Z 33001KT 18/16 A3026 RMK A01 T01760159  RH  094%=      5-min Rain = 0
KLBW 101220Z 33000KT 18/16 A3026 RMK A01 T01800161  RH  093%=      5-min Rain = 0
KLBW 101225Z 00000KT 19/17 A3026 RMK A01 T01860165  RH  092%=      5-min Rain = 0
KLBW 101230Z 00000KT 19/17 A3026 RMK A01 T01920165  RH  089%=      5-min Rain = 0
KLBW 101235Z 00000KT 20/17 A3026 RMK A01 T01990167  RH  086%=      5-min Rain = 0
KLBW 101240Z 00000KT 21/17 A3026 RMK A01 T02080169  RH  083%=      5-min Rain = 0
KLBW 101245Z 00000KT 21/17 A3026 RMK A01 T02120165  RH  078%=      5-min Rain = 0
KLBW 101250Z 00000KT 22/17 A3026 RMK A01 T02170165  RH  076%=      5-min Rain = 0
KLBW 101255Z 00000KT 22/16 A3026 RMK A01 T02200163  RH  074%=      5-min Rain = 0
KLBW 101300Z 33000KT 23/17 A3026 RMK A01 T02250165  RH  072%=      5-min Rain = 0
KLBW 101305Z 00000KT 23/16 A3026 RMK A01 T02300164  RH  070%=      5-min Rain = 0
KLBW 101310Z 00000KT 23/16 A3026 RMK A01 T02330163  RH  068%=      5-min Rain = 0
KLBW 101315Z 33000KT 23/16 A3027 RMK A01 T02330161  RH  067%=      5-min Rain = 0
KLBW 101320Z 23000KT 24/16 A3027 RMK A01 T02360162  RH  066%=      5-min Rain = 0
KLBW 101325Z 25001KT 24/16 A3026 RMK A01 T02390163  RH  066%=      5-min Rain = 0
KLBW 101330Z 25001KT 24/16 A3026 RMK A01 T02380163  RH  066%=      5-min Rain = 0
KLBW 101335Z 25000KT 24/16 A3026 RMK A01 T02420164  RH  065%=      5-min Rain = 0
KLBW 101340Z 33001KT 25/16 A3027 RMK A01 T02460164  RH  063%=      5-min Rain = 0
KLBW 101345Z 31002KT 25/16 A3027 RMK A01 T02450163  RH  063%=      5-min Rain = 0
KLBW 101350Z 29002KT 25/16 A3027 RMK A01 T02450163  RH  063%=      5-min Rain = 0
KLBW 101355Z 28002KT 25/16 A3027 RMK A01 T02450164  RH  063%=      5-min Rain = 0
KLBW 101400Z 32001KT 25/16 A3027 RMK A01 T02500163  RH  062%=      5-min Rain = 0
KLBW 101405Z 28001KT 25/16 A3027 RMK A01 T02480163  RH  062%=      5-min Rain = 0
KLBW 101410Z 32002KT 25/16 A3027 RMK A01 T02480163  RH  062%=      5-min Rain = 0
KLBW 101415Z 34002KT 25/16 A3027 RMK A01 T02480162  RH  062%=      5-min Rain = 0
KLBW 101420Z 31001KT 25/16 A3027 RMK A01 T02510162  RH  061%=      5-min Rain = 0
KLBW 101425Z 26001KT 26/16 A3027 RMK A01 T02550163  RH  060%=      5-min Rain = 0
KLBW 101430Z 34002KT 26/16 A3028 RMK A01 T02570163  RH  059%=      5-min Rain = 0
KLBW 101435Z 01001KT 26/16 A3028 RMK A01 T02600162  RH  057%=      5-min Rain = 0
KLBW 101440Z 04002KT 26/16 A3028 RMK A01 T02640162  RH  056%=      5-min Rain = 0
KLBW 101445Z 29001KT 26/16 A3027 RMK A01 T02640162  RH  056%=      5-min Rain = 0
KLBW 101450Z 31002KT 27/16 A3027 RMK A01 T02670162  RH  055%=      5-min Rain = 0
KLBW 101455Z 32002KT 26/16 A3027 RMK A01 T02640162  RH  056%=      5-min Rain = 0
KLBW 101500Z 03003KT 26/16 A3027 RMK A01 T02640161  RH  056%=      5-min Rain = 0
KLBW 101505Z 10001KT 27/16 A3027 RMK A01 T02660160  RH  055%=      5-min Rain = 0
KLBW 101510Z 18002KT 27/16 A3027 RMK A01 T02680160  RH  054%=      5-min Rain = 0
KLBW 101515Z 05002KT 27/16 A3027 RMK A01 T02690159  RH  053%=      5-min Rain = 0
KLBW 101520Z 08003KT 27/16 A3027 RMK A01 T02720159  RH  053%=      5-min Rain = 0
KLBW 101525Z 15005KT 28/16 A3027 RMK A01 T02750159  RH  052%=      5-min Rain = 0
KLBW 101530Z 12003KT 27/16 A3027 RMK A01 T02730156  RH  051%=      5-min Rain = 0
KLBW 101535Z 15003KT 28/15 A3027 RMK A01 T02770152  RH  049%=      5-min Rain = 0
KLBW 101540Z 15005KT 28/16 A3027 RMK A01 T02780156  RH  050%=      5-min Rain = 0
KLBW 101545Z 18004KT 28/15 A3026 RMK A01 T02760153  RH  049%=      5-min Rain = 0
KLBW 101550Z 21003KT 28/16 A3026 RMK A01 T02800155  RH  049%=      5-min Rain = 0
KLBW 101555Z 15003KT 28/15 A3026 RMK A01 T02790153  RH  048%=      5-min Rain = 0
KLBW 101600Z 18004KT 28/16 A3026 RMK A01 T02830155  RH  048%=      5-min Rain = 0
KLBW 101605Z 21003KT 28/15 A3026 RMK A01 T02820151  RH  047%=      5-min Rain = 0
KLBW 101610Z 24002KT 28/15 A3026 RMK A01 T02770152  RH  049%=      5-min Rain = 0
KLBW 101615Z 19004KT 28/16 A3026 RMK A01 T02790156  RH  050%=      5-min Rain = 0
KLBW 101620Z 19004KT 28/16 A3026 RMK A01 T02820157  RH  049%=      5-min Rain = 0
KLBW 101625Z 20004KT 28/16 A3026 RMK A01 T02800155  RH  049%=      5-min Rain = 0
KLBW 101630Z 14006KT 29/16 A3026 RMK A01 T02880156  RH  047%=      5-min Rain = 0
KLBW 101635Z 14003KT 30/15 A3026 RMK A01 T02960154  RH  044%=      5-min Rain = 0
KLBW 101640Z 11003KT 29/15 A3026 RMK A01 T02910152  RH  045%=      5-min Rain = 0
KLBW 101645Z 12004KT 28/15 A3026 RMK A01 T02840151  RH  046%=      5-min Rain = 0
KLBW 101650Z 13006KT 29/16 A3026 RMK A01 T02860155  RH  047%=      5-min Rain = 0
KLBW 101655Z 11005G10KT 29/16 A3025 RMK A01 T02900155  RH  046%=      5-min Rain = 0
KLBW 101700Z 13004KT 29/16 A3025 RMK A01 T02900157  RH  047%=      5-min Rain = 0
KLBW 101705Z 12005KT 29/16 A3025 RMK A01 T02890157  RH  047%=      5-min Rain = 0
KLBW 101710Z 20003KT 28/15 A3025 RMK A01 T02840153  RH  047%=      5-min Rain = 0
KLBW 101715Z 20006KT 28/15 A3025 RMK A01 T02820153  RH  047%=      5-min Rain = 0
KLBW 101720Z 19005KT 29/15 A3025 RMK A01 T02870153  RH  046%=      5-min Rain = 0
KLBW 101725Z 16006KT 29/15 A3024 RMK A01 T02900154  RH  046%=      5-min Rain = 0
KLBW 101730Z 16006KT 29/15 A3024 RMK A01 T02930153  RH  045%=      5-min Rain = 0
KLBW 101735Z 15005KT 30/15 A3024 RMK A01 T02950152  RH  044%=      5-min Rain = 0
KLBW 101740Z 16003KT 30/15 A3024 RMK A01 T02980150  RH  042%=      5-min Rain = 0
KLBW 101745Z 15005KT 30/15 A3024 RMK A01 T03010151  RH  042%=      5-min Rain = 0
KLBW 101750Z 13004KT 30/15 A3023 RMK A01 T03020151  RH  042%=      5-min Rain = 0
KLBW 101755Z 13007KT 31/15 A3023 RMK A01 T03070152  RH  041%=      5-min Rain = 0
KLBW 101800Z 17006G11KT 30/15 A3023 RMK A01 T03030147  RH  041%=      5-min Rain = 0
KLBW 101805Z 16004G9KT 30/15 A3023 RMK A01 T03000148  RH  041%=      5-min Rain = 0
KLBW 101810Z 15006KT 31/15 A3023 RMK A01 T03050149  RH  041%=      5-min Rain = 0
KLBW 101815Z 14002KT 30/15 A3022 RMK A01 T03030147  RH  040%=      5-min Rain = 0
KLBW 101820Z 17007KT 30/15 A3022 RMK A01 T02970148  RH  042%=      5-min Rain = 0
KLBW 101825Z 17004G9KT 29/15 A3022 RMK A01 T02890148  RH  044%=      5-min Rain = 0
KLBW 101830Z 20005G10KT 30/15 A3022 RMK A01 T02960149  RH  043%=      5-min Rain = 0
KLBW 101835Z 20006KT 31/15 A3022 RMK A01 T03080150  RH  040%=      5-min Rain = 0
KLBW 101840Z 16005KT 31/15 A3022 RMK A01 T03090150  RH  040%=      5-min Rain = 0
KLBW 101845Z 12007KT 31/15 A3021 RMK A01 T03090154  RH  041%=      5-min Rain = 0
KLBW 101850Z 15008G13KT 31/15 A3021 RMK A01 T03090153  RH  041%=      5-min Rain = 0
KLBW 101855Z 14007KT 32/15 A3021 RMK A01 T03150152  RH  039%=      5-min Rain = 0
KLBW 101900Z 16005KT 31/15 A3021 RMK A01 T03120150  RH  039%=      5-min Rain = 0
KLBW 101905Z 14008G14KT 32/16 A3021 RMK A01 T03180157  RH  040%=      5-min Rain = 0
KLBW 101910Z 15007KT 32/15 A302 RMK A01 T03210154  RH  038%=      5-min Rain = 0
KLBW 101915Z 15007G12KT 31/15 A302 RMK A01 T03120149  RH  039%=      5-min Rain = 0
KLBW 101920Z 17007KT 31/14 A302 RMK A01 T03110144  RH  038%=      5-min Rain = 0
KLBW 101925Z 16007G13KT 31/14 A302 RMK A01 T03110141  RH  037%=      5-min Rain = 0
KLBW 101930Z 16006G12KT 32/14 A302 RMK A01 T03170142  RH  036%=      5-min Rain = 0
KLBW 101935Z 19002G9KT 32/14 A3019 RMK A01 T03160143  RH  037%=      5-min Rain = 0
KLBW 101940Z 17008KT 32/15 A3019 RMK A01 T03200151  RH  038%=      5-min Rain = 0
KLBW 101945Z 18006G11KT 32/15 A3019 RMK A01 T03150153  RH  039%=      5-min Rain = 0
KLBW 101950Z 15008KT 32/15 A3018 RMK A01 T03180154  RH  039%=      5-min Rain = 0
KLBW 101955Z 17008G13KT 32/15 A3018 RMK A01 T03190153  RH  038%=      5-min Rain = 0
KLBW 102000Z 13007KT 32/15 A3018 RMK A01 T03170153  RH  039%=      5-min Rain = 0
KLBW 102005Z 12006G11KT 32/15 A3018 RMK A01 T03150151  RH  039%=      5-min Rain = 0
KLBW 102010Z 18007KT 31/15 A3018 RMK A01 T03100149  RH  040%=      5-min Rain = 0
KLBW 102015Z 18006KT 32/15 A3018 RMK A01 T03200149  RH  037%=      5-min Rain = 0
KLBW 102020Z 16005KT 32/15 A3017 RMK A01 T03220146  RH  036%=      5-min Rain = 0
KLBW 102025Z 15007G12KT 33/14 A3017 RMK A01 T03270144  RH  034%=      5-min Rain = 0
KLBW 102030Z 19006G11KT 33/14 A3017 RMK A01 T03280141  RH  034%=      5-min Rain = 0
KLBW 102035Z 16006G12KT 33/14 A3016 RMK A01 T03270139  RH  034%=      5-min Rain = 0
KLBW 102040Z 15007KT 32/14 A3016 RMK A01 T03200137  RH  034%=      5-min Rain = 0
KLBW 102045Z 18005KT 32/14 A3016 RMK A01 T03200138  RH  035%=      5-min Rain = 0
KLBW 102050Z 22007KT 31/14 A3016 RMK A01 T03080137  RH  037%=      5-min Rain = 0
KLBW 102055Z 20008G13KT 32/14 A3015 RMK A01 T03150139  RH  036%=      5-min Rain = 0
KLBW 102100Z 18009KT 32/14 A3015 RMK A01 T03210135  RH  034%=      5-min Rain = 0
KLBW 102105Z 20005KT 32/13 A3015 RMK A01 T03160134  RH  034%=      5-min Rain = 0
KLBW 102110Z 18007KT 33/14 A3015 RMK A01 T03280136  RH  033%=      5-min Rain = 0
KLBW 102115Z 18010G15KT 33/14 A3015 RMK A01 T03300140  RH  033%=      5-min Rain = 0
KLBW 102120Z 17007G13KT 33/14 A3014 RMK A01 T03260138  RH  033%=      5-min Rain = 0
KLBW 102125Z 15007G17KT 33/14 A3014 RMK A01 T03270136  RH  033%=      5-min Rain = 0
KLBW 102130Z 16005G11KT 32/14 A3014 RMK A01 T03240135  RH  033%=      5-min Rain = 0
KLBW 102135Z 19006G14KT 32/13 A3014 RMK A01 T03230133  RH  033%=      5-min Rain = 0
KLBW 102140Z 17010KT 33/14 A3014 RMK A01 T03270140  RH  034%=      5-min Rain = 0
KLBW 102145Z 17010G15KT 33/14 A3013 RMK A01 T03250141  RH  034%=      5-min Rain = 0
KLBW 102150Z 17009G15KT 33/14 A3013 RMK A01 T03280142  RH  034%=      5-min Rain = 0
KLBW 102155Z 17008G13KT 33/14 A3013 RMK A01 T03300141  RH  034%=      5-min Rain = 0
KLBW 102200Z 18009KT 32/14 A3013 RMK A01 T03230138  RH  034%=      5-min Rain = 0
KLBW 102205Z 17008G15KT 31/14 A3012 RMK A01 T03140137  RH  035%=      5-min Rain = 0
KLBW 102210Z 17008G14KT 33/14 A3012 RMK A01 T03250137  RH  033%=      5-min Rain = 0
KLBW 102215Z 17008G14KT 33/13 A3012 RMK A01 T03250133  RH  032%=      5-min Rain = 0
KLBW 102220Z 17009KT 33/13 A3012 RMK A01 T03250130  RH  032%=      5-min Rain = 0
KLBW 102225Z 17008KT 32/13 A3012 RMK A01 T03230128  RH  032%=      5-min Rain = 0
KLBW 102230Z 14007G12KT 33/13 A3012 RMK A01 T03260127  RH  031%=      5-min Rain = 0
KLBW 102235Z 14008KT 33/13 A3012 RMK A01 T03250127  RH  031%=      5-min Rain = 0
KLBW 102240Z 14008KT 33/13 A3011 RMK A01 T03250126  RH  031%=      5-min Rain = 0
KLBW 102245Z 18007KT 32/12 A3011 RMK A01 T03220123  RH  031%=      5-min Rain = 0
KLBW 102250Z 19008KT 32/12 A3011 RMK A01 T03200122  RH  031%=      5-min Rain = 0
KLBW 102255Z 18006KT 33/12 A3011 RMK A01 T03260122  RH  030%=      5-min Rain = 0
KLBW 102300Z 17007G14KT 33/12 A3011 RMK A01 T03260124  RH  030%=      5-min Rain = 0
KLBW 102305Z 19007G12KT 32/12 A301 RMK A01 T03240122  RH  030%=      5-min Rain = 0
KLBW 102310Z 20010KT 32/12 A301 RMK A01 T03240124  RH  031%=      5-min Rain = 0
KLBW 102315Z 19008G13KT 32/12 A301 RMK A01 T03230123  RH  031%=      5-min Rain = 0
KLBW 102320Z 20009KT 33/13 A301 RMK A01 T03250129  RH  032%=      5-min Rain = 0
KLBW 102325Z 19006G11KT 32/13 A301 RMK A01 T03160132  RH  034%=      5-min Rain = 0
KLBW 102330Z 17011G16KT 32/14 A301 RMK A01 T03170138  RH  035%=      5-min Rain = 0
KLBW 102335Z 19011KT 32/14 A301 RMK A01 T03190137  RH  035%=      5-min Rain = 0
KLBW 102340Z 18009KT 32/14 A301 RMK A01 T03210137  RH  034%=      5-min Rain = 0
KLBW 102345Z 17009KT 32/14 A3009 RMK A01 T03160135  RH  035%=      5-min Rain = 0
KLBW 102350Z 18009KT 32/13 A3009 RMK A01 T03160134  RH  034%=      5-min Rain = 0
KLBW 102355Z 18009KT 32/13 A3009 RMK A01 T03170133  RH  034%=      5-min Rain = 0
KLBW 110000Z 18010KT 32/13 A3009 RMK A01 T03170131  RH  034%=      5-min Rain = 0
KLBW 110005Z 20009KT 32/13 A3009 RMK A01 T03170129  RH  033%=      5-min Rain = 0
KLBW 110010Z 19008KT 32/13 A3009 RMK A01 T03170129  RH  033%=      5-min Rain = 0
KLBW 110015Z 17010KT 32/13 A3009 RMK A01 T03160128  RH  033%=      5-min Rain = 0
KLBW 110020Z 18010KT 32/13 A3009 RMK A01 T03150128  RH  033%=      5-min Rain = 0
KLBW 110025Z 17009G14KT 32/13 A3009 RMK A01 T03150131  RH  034%=      5-min Rain = 0
KLBW 110030Z 14010KT 31/14 A3009 RMK A01 T03140140  RH  036%=      5-min Rain = 0
KLBW 110035Z 16010KT 31/14 A3009 RMK A01 T03090142  RH  038%=      5-min Rain = 0
KLBW 110040Z 18010KT 31/14 A3009 RMK A01 T03060141  RH  038%=      5-min Rain = 0
KLBW 110045Z 18011G16KT 31/14 A3009 RMK A01 T03050141  RH  038%=      5-min Rain = 0
KLBW 110050Z 18011G16KT 30/14 A301 RMK A01 T03040141  RH  038%=      5-min Rain = 0
KLBW 110055Z 17010G15KT 30/14 A301 RMK A01 T03040141  RH  039%=      5-min Rain = 0
KLBW 110100Z 18010KT 30/14 A301 RMK A01 T03040142  RH  039%=      5-min Rain = 0
KLBW 110105Z 18011G17KT 30/14 A301 RMK A01 T03010143  RH  040%=      5-min Rain = 0
KLBW 110110Z 16011KT 30/14 A3011 RMK A01 T03000142  RH  040%=      5-min Rain = 0
KLBW 110115Z 17012G17KT 30/14 A3011 RMK A01 T02990141  RH  040%=      5-min Rain = 0
KLBW 110120Z 18011G16KT 30/14 A3011 RMK A01 T02960140  RH  040%=      5-min Rain = 0
KLBW 110125Z 17010KT 30/14 A3011 RMK A01 T02950139  RH  040%=      5-min Rain = 0
KLBW 110130Z 17011KT 29/14 A3011 RMK A01 T02940139  RH  040%=      5-min Rain = 0
KLBW 110135Z 16011KT 29/14 A3012 RMK A01 T02930139  RH  041%=      5-min Rain = 0
KLBW 110140Z 16011KT 29/14 A3012 RMK A01 T02910138  RH  041%=      5-min Rain = 0
KLBW 110145Z 15010KT 29/14 A3012 RMK A01 T02900139  RH  041%=      5-min Rain = 0
KLBW 110150Z 16011KT 29/14 A3012 RMK A01 T02890139  RH  042%=      5-min Rain = 0
KLBW 110155Z 15009KT 29/14 A3012 RMK A01 T02880138  RH  042%=      5-min Rain = 0
KLBW 110200Z 15008G13KT 29/14 A3012 RMK A01 T02870138  RH  042%=      5-min Rain = 0
KLBW 110205Z 16009KT 29/14 A3012 RMK A01 T02860137  RH  042%=      5-min Rain = 0
KLBW 110210Z 16008KT 29/14 A3013 RMK A01 T02860136  RH  042%=      5-min Rain = 0
KLBW 110215Z 15009KT 28/14 A3013 RMK A01 T02840137  RH  042%=      5-min Rain = 0
KLBW 110220Z 15009KT 28/14 A3013 RMK A01 T02840138  RH  042%=      5-min Rain = 0
KLBW 110225Z 15008KT 28/14 A3013 RMK A01 T02830138  RH  043%=      5-min Rain = 0
KLBW 110230Z 16008G13KT 28/14 A3013 RMK A01 T02820139  RH  043%=      5-min Rain = 0
KLBW 110235Z 16009G15KT 28/14 A3013 RMK A01 T02810140  RH  044%=      5-min Rain = 0
KLBW 110240Z 16009KT 28/14 A3013 RMK A01 T02810141  RH  044%=      5-min Rain = 0
KLBW 110245Z 17008KT 28/14 A3013 RMK A01 T02800142  RH  045%=      5-min Rain = 0
KLBW 110250Z 17006KT 28/14 A3013 RMK A01 T02780142  RH  045%=      5-min Rain = 0
KLBW 110255Z 17008G13KT 28/14 A3013 RMK A01 T02770143  RH  046%=      5-min Rain = 0
KLBW 110300Z 17009KT 28/14 A3013 RMK A01 T02770144  RH  046%=      5-min Rain = 0
KLBW 110305Z 17008KT 28/14 A3013 RMK A01 T02770144  RH  046%=      5-min Rain = 0
KLBW 110310Z 17009KT 28/14 A3013 RMK A01 T02760144  RH  046%=      5-min Rain = 0
KLBW 110315Z 17008KT 28/14 A3013 RMK A01 T02760144  RH  046%=      5-min Rain = 0
KLBW 110320Z 16008KT 27/14 A3013 RMK A01 T02740144  RH  047%=      5-min Rain = 0
KLBW 110325Z 16010KT 27/15 A3013 RMK A01 T02740145  RH  047%=      5-min Rain = 0
KLBW 110330Z 16009KT 27/15 A3013 RMK A01 T02740146  RH  047%=      5-min Rain = 0
KLBW 110335Z 16008G13KT 27/15 A3014 RMK A01 T02720146  RH  048%=      5-min Rain = 0
KLBW 110340Z 15009KT 27/15 A3014 RMK A01 T02710146  RH  049%=      5-min Rain = 0
KLBW 110345Z 16008KT 27/15 A3014 RMK A01 T02700146  RH  049%=      5-min Rain = 0
KLBW 110350Z 16007KT 27/15 A3014 RMK A01 T02670147  RH  050%=      5-min Rain = 0
KLBW 110355Z 16008KT 27/15 A3015 RMK A01 T02670147  RH  050%=      5-min Rain = 0
KLBW 110400Z 16008G13KT 27/15 A3014 RMK A01 T02670147  RH  050%=      5-min Rain = 0
KLBW 110405Z 16008KT 27/15 A3014 RMK A01 T02660147  RH  050%=      5-min Rain = 0
KLBW 110410Z 16007KT 27/15 A3015 RMK A01 T02660147  RH  050%=      5-min Rain = 0
KLBW 110415Z 16006KT 27/15 A3015 RMK A01 T02650147  RH  050%=      5-min Rain = 0
KLBW 110420Z 15007KT 27/15 A3015 RMK A01 T02650146  RH  050%=      5-min Rain = 0
KLBW 110425Z 15006KT 26/15 A3015 RMK A01 T02640146  RH  050%=      5-min Rain = 0
KLBW 110430Z 15005KT 26/15 A3015 RMK A01 T02630146  RH  051%=      5-min Rain = 0
KLBW 110435Z 16005KT 26/15 A3015 RMK A01 T02610145  RH  051%=      5-min Rain = 0
KLBW 110440Z 16005KT 26/15 A3015 RMK A01 T02600146  RH  051%=      5-min Rain = 0
KLBW 110445Z 16006KT 26/15 A3015 RMK A01 T02600146  RH  052%=      5-min Rain = 0
KLBW 110450Z 16007KT 26/15 A3015 RMK A01 T02610146  RH  051%=      5-min Rain = 0
KLBW 110455Z 16006KT 26/15 A3015 RMK A01 T02620146  RH  051%=      5-min Rain = 0

Page generated in 0.0205 seconds.